Time;durP1;ratioP1;P1;durP2;ratioP2;P2;SDS_P1;SDS_P2;PMS_P1;PMS_P2;Temp;Humidity;BMP_temperature;BMP_pressure;BME280_temperature;BME280_humidity;BME280_pressure;Samples;Min_cycle;Max_cycle;Signal;HPM_P1;HPM_P2
2024/02/21 00:02:33;;;;;;;;;5.67;3.67;;;;;4.04;93.80;100878.67;114233;241;161429;-54
2024/02/21 00:05:08;;;;;;;;;4.25;3.75;;;;;4.10;93.82;100879.94;114554;243;40945;-54
2024/02/21 00:07:42;;;;;;;;;10.25;5.00;;;;;4.14;93.75;100881.20;114410;243;40172;-51
2024/02/21 00:10:17;;;;;;;;;6.00;5.00;;;;;4.16;94.02;100882.23;114270;244;39982;-52
2024/02/21 00:12:50;;;;;;;;;6.00;4.00;;;;;4.20;94.07;100879.95;114307;243;39224;-53
2024/02/21 00:15:24;;;;;;;;;7.00;4.00;;;;;4.24;94.12;100879.60;114334;241;160188;-53
2024/02/21 00:17:58;;;;;;;;;7.00;4.50;;;;;4.25;94.22;100872.95;114568;243;39211;-51
2024/02/21 00:20:32;;;;;;;;;5.00;4.00;;;;;4.31;94.10;100868.68;114407;241;161212;-51
2024/02/21 00:23:06;;;;;;;;;4.25;3.75;;;;;4.31;94.15;100869.16;114565;243;40117;-54
2024/02/21 00:25:40;;;;;;;;;5.00;4.00;;;;;4.29;94.29;100867.59;114561;243;40738;-54
2024/02/21 00:28:14;;;;;;;;;6.25;5.00;;;;;4.27;94.45;100860.48;114264;243;39262;-51
2024/02/21 00:30:50;;;;;;;;;5.00;4.00;;;;;4.34;94.32;100864.09;114535;243;40089;-52
2024/02/21 00:33:24;;;;;;;;;7.00;5.00;;;;;4.37;94.32;100865.09;114390;241;161293;-50
2024/02/21 00:35:57;;;;;;;;;5.00;4.00;;;;;4.43;94.46;100865.36;114543;243;40152;-50
2024/02/21 00:38:31;;;;;;;;;9.25;6.75;;;;;4.52;94.33;100860.80;114414;239;161829;-51
2024/02/21 00:41:06;;;;;;;;;6.00;5.00;;;;;4.56;94.24;100856.35;114491;243;39818;-50
2024/02/21 00:43:39;;;;;;;;;5.33;4.00;;;;;4.60;94.27;100857.23;114558;242;39182;-53
2024/02/21 00:46:14;;;;;;;;;6.00;5.25;;;;;4.64;94.29;100858.44;114393;242;40843;-52
2024/02/21 00:48:49;;;;;;;;;8.00;6.00;;;;;4.63;94.31;100857.80;114627;242;39568;-50
2024/02/21 00:51:24;;;;;;;;;7.25;6.00;;;;;4.62;94.42;100858.05;114454;241;161335;-50
2024/02/21 00:53:57;;;;;;;;;7.00;5.00;;;;;4.64;94.41;100859.14;114612;243;41045;-49
2024/02/21 00:56:31;;;;;;;;;6.75;6.00;;;;;4.66;94.61;100853.63;114480;241;162168;-50
2024/02/21 00:59:06;;;;;;;;;8.00;7.00;;;;;4.71;94.61;100851.52;114556;243;39675;-49
2024/02/21 01:01:41;;;;;;;;;9.00;7.00;;;;;4.76;94.52;100848.25;114606;242;39421;-55
2024/02/21 01:04:16;;;;;;;;;8.33;6.33;;;;;4.76;94.55;100842.19;114451;243;40055;-53
2024/02/21 01:06:49;;;;;;;;;5.00;4.50;;;;;4.78;94.55;100844.10;114549;243;38184;-50
2024/02/21 01:09:23;;;;;;;;;7.33;5.33;;;;;4.81;94.44;100841.01;114443;241;160986;-50
2024/02/21 01:11:57;;;;;;;;;6.00;4.50;;;;;4.80;94.36;100832.50;114571;242;39044;-51
2024/02/21 01:14:31;;;;;;;;;8.00;5.00;;;;;4.82;94.46;100832.21;114402;241;161367;-51
2024/02/21 01:17:06;;;;;;;;;8.75;4.50;;;;;4.86;94.51;100830.55;114523;243;39651;-53
2024/02/21 01:19:40;;;;;;;;;6.00;5.00;;;;;4.88;94.59;100825.87;114537;242;39098;-53
2024/02/21 01:22:14;;;;;;;;;6.00;4.00;;;;;4.90;94.64;100823.94;114271;241;40122;-50
2024/02/21 01:24:48;;;;;;;;;7.25;5.00;;;;;4.93;94.64;100821.10;114540;243;39962;-50
2024/02/21 01:27:22;;;;;;;;;8.00;6.00;;;;;4.99;94.60;100822.48;114357;241;161178;-52
2024/02/21 01:29:56;;;;;;;;;8.00;6.75;;;;;5.02;94.73;100825.09;114533;242;40390;-52
2024/02/21 01:32:30;;;;;;;;;5.00;4.00;;;;;5.04;94.76;100827.96;114425;239;161536;-50
2024/02/21 01:35:05;;;;;;;;;6.50;4.75;;;;;5.01;94.88;100832.66;114524;242;41567;-50
2024/02/21 01:37:42;;;;;;;;;7.75;5.75;;;;;5.02;94.95;100830.41;114340;243;39170;-49
2024/02/21 01:40:20;;;;;;;;;9.00;5.25;;;;;5.04;95.01;100828.27;114384;243;39824;-50
2024/02/21 01:42:55;;;;;;;;;10.00;7.00;;;;;5.03;95.24;100828.04;114591;242;39969;-50
2024/02/21 01:45:30;;;;;;;;;9.00;6.00;;;;;5.05;95.37;100826.55;114287;241;161538;-49
2024/02/21 01:48:05;;;;;;;;;9.00;7.00;;;;;5.07;95.39;100822.65;114570;243;39246;-51
2024/02/21 01:50:39;;;;;;;;;15.00;10.00;;;;;5.13;95.40;100821.21;114434;241;161210;-51
2024/02/21 01:53:18;;;;;;;;;6.00;4.00;;;;;5.18;95.43;100820.84;114594;242;39150;-53
2024/02/21 01:55:53;;;;;;;;;9.00;7.00;;;;;5.16;95.54;100821.95;114442;241;162068;-53
2024/02/21 01:58:29;;;;;;;;;6.75;5.00;;;;;5.13;95.45;100823.13;114517;243;40254;-53
2024/02/21 02:01:04;;;;;;;;;12.00;8.00;;;;;5.17;95.64;100818.69;114398;242;41424;-54
2024/02/21 02:03:38;;;;;;;;;8.00;6.50;;;;;5.18;95.62;100821.73;114414;243;160701;-53
2024/02/21 02:06:13;;;;;;;;;10.00;8.00;;;;;5.22;95.45;100818.02;114559;242;39678;-53
2024/02/21 02:08:47;;;;;;;;;6.00;5.00;;;;;5.17;95.48;100814.89;114115;242;159985;-53
2024/02/21 02:11:21;;;;;;;;;4.25;4.00;;;;;5.19;95.60;100818.66;114444;243;40980;-50
2024/02/21 02:13:55;;;;;;;;;7.00;5.50;;;;;5.20;95.53;100817.79;114430;240;161255;-51
2024/02/21 02:16:29;;;;;;;;;5.50;5.00;;;;;5.21;95.49;100811.70;114547;243;40935;-49
2024/02/21 02:19:03;;;;;;;;;8.50;7.00;;;;;5.22;95.40;100809.63;114553;243;39575;-50
2024/02/21 02:21:44;;;;;;;;;6.25;5.00;;;;;5.23;95.53;100809.85;114144;243;161673;-51
2024/02/21 02:24:18;;;;;;;;;9.00;6.00;;;;;5.21;95.58;100811.68;114552;243;40087;-51
2024/02/21 02:26:52;;;;;;;;;8.25;5.50;;;;;5.18;95.84;100809.84;114435;241;161101;-53
2024/02/21 02:29:26;;;;;;;;;7.75;6.00;;;;;5.19;95.82;100810.99;114554;243;39907;-54
2024/02/21 02:32:00;;;;;;;;;11.33;8.00;;;;;5.14;95.97;100806.77;114457;241;164986;-51
2024/02/21 02:34:33;;;;;;;;;7.67;6.00;;;;;5.20;96.02;100808.17;114565;243;40461;-51
2024/02/21 02:37:07;;;;;;;;;11.00;8.00;;;;;5.20;96.08;100804.46;114569;242;39798;-52
2024/02/21 02:39:41;;;;;;;;;7.00;6.00;;;;;5.22;96.10;100802.08;114405;239;161789;-52
2024/02/21 02:42:15;;;;;;;;;11.00;7.00;;;;;5.26;95.96;100804.38;114556;243;40025;-53
2024/02/21 02:44:49;;;;;;;;;6.33;5.67;;;;;5.30;95.87;100804.91;114445;241;163229;-54
2024/02/21 02:47:23;;;;;;;;;7.00;5.75;;;;;5.25;95.99;100808.80;114520;242;40559;-53
2024/02/21 02:49:57;;;;;;;;;8.00;6.00;;;;;5.22;96.22;100804.75;114398;239;161427;-52
2024/02/21 02:52:31;;;;;;;;;10.00;7.00;;;;;5.28;96.20;100800.77;114538;242;40185;-53
2024/02/21 02:55:06;;;;;;;;;8.00;5.00;;;;;5.34;96.07;100799.33;114542;242;40630;-52
2024/02/21 02:57:41;;;;;;;;;10.67;9.00;;;;;5.32;96.02;100800.61;114408;239;161957;-53
2024/02/21 03:00:18;;;;;;;;;8.50;6.25;;;;;5.28;96.06;100799.56;114551;243;39906;-54
2024/02/21 03:02:54;;;;;;;;;10.00;8.00;;;;;5.27;96.18;100792.86;114444;241;161414;-53
2024/02/21 03:05:28;;;;;;;;;13.00;9.00;;;;;5.24;96.19;100796.18;114524;243;39254;-54
2024/02/21 03:08:06;;;;;;;;;13.00;10.00;;;;;5.18;96.36;100793.68;114444;239;161786;-52
2024/02/21 03:10:41;;;;;;;;;13.67;9.00;;;;;5.13;96.44;100797.22;114541;243;39946;-52
2024/02/21 03:13:14;;;;;;;;;15.00;9.33;;;;;5.20;96.22;100797.48;115064;243;40300;-49
2024/02/21 03:15:49;;;;;;;;;5.75;5.00;;;;;5.06;96.18;100798.79;114858;241;160769;-50
2024/02/21 03:18:22;;;;;;;;;13.33;9.00;;;;;4.94;96.08;100802.62;114604;243;39574;-51
2024/02/21 03:20:56;;;;;;;;;8.00;6.00;;;;;4.88;96.04;100800.41;114431;239;161127;-51
2024/02/21 03:23:31;;;;;;;;;12.00;7.00;;;;;4.85;96.14;100795.52;114583;243;39744;-50
2024/02/21 03:26:05;;;;;;;;;12.75;9.00;;;;;4.74;96.21;100791.45;114417;239;161627;-50
2024/02/21 03:28:39;;;;;;;;;11.00;8.00;;;;;4.69;96.11;100793.55;114527;243;40478;-50
2024/02/21 03:31:15;;;;;;;;;9.00;7.00;;;;;4.64;96.32;100793.02;114269;243;39319;-49
2024/02/21 03:33:50;;;;;;;;;7.50;7.00;;;;;4.63;96.51;100787.72;114411;239;161100;-51
2024/02/21 03:36:24;;;;;;;;;12.00;7.67;;;;;4.69;96.66;100785.19;114567;242;41436;-51
2024/02/21 03:38:58;;;;;;;;;12.00;9.00;;;;;4.77;96.62;100784.95;114404;243;161530;-51
2024/02/21 03:41:32;;;;;;;;;6.00;4.50;;;;;4.75;96.82;100782.16;114483;243;39946;-53
2024/02/21 03:44:06;;;;;;;;;6.67;5.67;;;;;4.81;97.00;100783.90;114378;242;160903;-53
2024/02/21 03:46:40;;;;;;;;;7.25;6.00;;;;;4.85;97.04;100782.27;114235;244;39994;-51
2024/02/21 03:49:14;;;;;;;;;12.25;8.75;;;;;4.87;97.03;100783.55;114238;244;41120;-51
2024/02/21 03:51:48;;;;;;;;;10.00;8.00;;;;;4.88;97.11;100789.08;114087;242;161678;-52
2024/02/21 03:54:22;;;;;;;;;11.00;9.00;;;;;4.92;97.14;100789.33;114245;244;40580;-53
2024/02/21 03:56:56;;;;;;;;;14.25;8.75;;;;;4.96;97.13;100787.45;114277;239;161591;-52
2024/02/21 03:59:30;;;;;;;;;8.75;6.00;;;;;5.04;97.22;100777.94;114507;243;39867;-52
2024/02/21 04:02:08;;;;;;;;;13.00;9.00;;;;;5.15;97.25;100781.05;114403;239;161324;-53
2024/02/21 04:04:46;;;;;;;;;6.00;6.00;;;;;5.23;97.23;100785.20;114519;243;38907;-53
2024/02/21 04:07:20;;;;;;;;;11.00;7.75;;;;;5.28;97.44;100775.86;114605;243;39682;-53
2024/02/21 04:09:54;;;;;;;;;7.00;5.00;;;;;5.30;97.39;100777.91;114348;241;161681;-54
2024/02/21 04:12:28;;;;;;;;;12.00;8.00;;;;;5.32;97.36;100775.45;114161;243;432556;-53
2024/02/21 04:15:02;;;;;;;;;15.00;11.00;;;;;5.30;97.40;100775.92;114320;243;161313;-53
2024/02/21 04:17:37;;;;;;;;;10.50;7.50;;;;;5.31;97.36;100776.26;114507;243;40780;-53
2024/02/21 04:20:18;;;;;;;;;12.00;10.00;;;;;5.30;97.35;100774.56;114346;242;161351;-55
2024/02/21 04:22:52;;;;;;;;;8.00;5.67;;;;;5.29;97.30;100775.21;114222;244;40800;-51
2024/02/21 04:25:26;;;;;;;;;10.00;7.00;;;;;5.24;97.48;100773.38;114230;244;39713;-61
2024/02/21 04:28:00;;;;;;;;;12.00;9.25;;;;;5.22;97.62;100771.73;114191;241;161052;-50
2024/02/21 04:30:34;;;;;;;;;11.00;8.00;;;;;5.27;97.61;100765.55;114488;243;40227;-50
2024/02/21 04:33:08;;;;;;;;;9.00;7.00;;;;;5.30;97.40;100763.28;114258;242;161218;-50
2024/02/21 04:35:42;;;;;;;;;10.00;7.00;;;;;5.27;97.46;100762.33;114272;243;40118;-50
2024/02/21 04:38:16;;;;;;;;;8.00;6.33;;;;;5.21;97.86;100758.80;114422;241;161606;-49
2024/02/21 04:40:50;;;;;;;;;13.00;9.50;;;;;5.22;97.84;100761.03;114526;243;40075;-49
2024/02/21 04:43:24;;;;;;;;;11.00;7.00;;;;;5.23;97.95;100762.38;114554;243;40434;-49
2024/02/21 04:45:58;;;;;;;;;10.00;7.00;;;;;5.24;97.99;100763.56;114420;241;161672;-49
2024/02/21 04:48:32;;;;;;;;;16.00;11.25;;;;;5.33;97.95;100761.80;114555;243;41338;-52
2024/02/21 04:51:07;;;;;;;;;8.00;7.00;;;;;5.40;97.83;100759.86;114440;241;161448;-52
2024/02/21 04:53:41;;;;;;;;;14.00;11.00;;;;;5.48;97.65;100758.13;114549;243;39456;-51
2024/02/21 04:56:16;;;;;;;;;14.00;10.50;;;;;5.54;97.72;100755.48;114405;241;161786;-51
2024/02/21 04:58:50;;;;;;;;;9.67;7.33;;;;;5.57;97.73;100755.21;114523;243;39780;-53
2024/02/21 05:01:24;;;;;;;;;13.00;8.75;;;;;5.59;97.69;100749.61;114562;242;39643;-52
2024/02/21 05:03:58;;;;;;;;;11.00;8.00;;;;;5.55;97.71;100748.60;114342;241;161287;-52
2024/02/21 05:06:32;;;;;;;;;11.00;8.00;;;;;5.53;97.62;100748.38;114583;242;41013;-53
2024/02/21 05:09:07;;;;;;;;;12.00;9.50;;;;;5.48;97.82;100746.94;114397;241;161319;-53
2024/02/21 05:11:41;;;;;;;;;12.50;9.50;;;;;5.47;97.77;100748.07;114527;242;40165;-51
2024/02/21 05:14:14;;;;;;;;;12.25;8.75;;;;;5.55;97.73;100750.01;114392;241;162344;-51
2024/02/21 05:16:48;;;;;;;;;14.00;10.00;;;;;5.56;97.68;100749.22;114527;243;39102;-53
2024/02/21 05:19:22;;;;;;;;;15.75;10.25;;;;;5.54;97.77;100751.20;114564;242;40212;-54
2024/02/21 05:21:56;;;;;;;;;12.33;9.33;;;;;5.52;97.88;100753.86;114375;241;161624;-50
2024/02/21 05:24:30;;;;;;;;;13.50;9.25;;;;;5.49;98.03;100751.66;114551;242;40109;-50
2024/02/21 05:27:04;;;;;;;;;14.00;10.00;;;;;5.47;98.21;100754.13;114400;241;161997;-52
2024/02/21 05:29:38;;;;;;;;;14.00;10.00;;;;;5.54;98.11;100745.95;114528;242;39888;-52
2024/02/21 05:32:12;;;;;;;;;15.25;11.75;;;;;5.54;97.99;100747.41;114440;241;161691;-53
2024/02/21 05:34:49;;;;;;;;;20.50;13.75;;;;;5.51;98.26;100745.36;114493;243;40565;-54
2024/02/21 05:37:23;;;;;;;;;15.00;11.00;;;;;5.53;98.13;100742.73;114575;243;41158;-52
2024/02/21 05:39:57;;;;;;;;;14.00;11.00;;;;;5.54;98.11;100740.85;114418;241;161481;-53
2024/02/21 05:42:31;;;;;;;;;12.25;10.00;;;;;5.50;98.30;100734.95;114579;243;40784;-50
2024/02/21 05:45:05;;;;;;;;;13.00;10.00;;;;;5.50;98.57;100730.84;114427;241;161690;-50
2024/02/21 05:47:39;;;;;;;;;17.75;13.25;;;;;5.53;98.52;100728.55;114595;243;39870;-54
2024/02/21 05:50:14;;;;;;;;;17.00;11.00;;;;;5.56;98.47;100727.36;114395;241;161738;-54
2024/02/21 05:52:48;;;;;;;;;21.00;15.75;;;;;5.60;98.36;100730.40;114280;243;39517;-54
2024/02/21 05:55:22;;;;;;;;;13.67;9.33;;;;;5.63;98.44;100736.20;114254;244;39564;-54
2024/02/21 05:57:57;;;;;;;;;12.00;9.00;;;;;5.66;98.59;100735.34;114173;241;161334;-50
2024/02/21 06:00:32;;;;;;;;;17.00;12.00;;;;;5.69;98.38;100730.58;114223;244;40308;-51
2024/02/21 06:03:07;;;;;;;;;16.00;10.00;;;;;5.73;98.46;100735.11;114117;241;161870;-51
2024/02/21 06:05:43;;;;;;;;;17.00;12.50;;;;;5.76;98.33;100734.99;114278;244;40607;-52
2024/02/21 06:08:17;;;;;;;;;15.00;10.00;;;;;5.81;98.51;100732.93;114130;241;162683;-50
2024/02/21 06:10:54;;;;;;;;;19.00;13.00;;;;;5.87;98.53;100732.52;114211;244;41827;-50
2024/02/21 06:13:28;;;;;;;;;14.67;11.33;;;;;5.86;98.59;100730.49;114256;244;39734;-50
2024/02/21 06:16:02;;;;;;;;;14.00;10.00;;;;;5.91;98.51;100725.90;114134;243;161579;-50
2024/02/21 06:18:38;;;;;;;;;17.75;13.00;;;;;5.95;98.59;100723.54;114237;244;41215;-52
2024/02/21 06:21:13;;;;;;;;;15.75;11.00;;;;;6.02;98.64;100725.15;114143;241;161446;-53
2024/02/21 06:23:47;;;;;;;;;14.00;10.00;;;;;6.05;98.60;100724.47;114259;244;39329;-51
2024/02/21 06:26:21;;;;;;;;;14.75;10.00;;;;;6.11;98.59;100728.42;114077;242;161692;-51
2024/02/21 06:28:55;;;;;;;;;15.00;12.00;;;;;6.15;98.47;100735.61;114279;243;39645;-52
2024/02/21 06:31:31;;;;;;;;;15.25;12.00;;;;;6.20;98.48;100736.75;114295;244;39715;-50
2024/02/21 06:34:05;;;;;;;;;12.00;9.25;;;;;6.20;98.46;100733.86;114548;242;161287;-50
2024/02/21 06:36:39;;;;;;;;;15.67;10.00;;;;;6.21;98.45;100735.22;114579;242;39947;-50
2024/02/21 06:39:13;;;;;;;;;16.00;12.00;;;;;6.20;98.56;100733.34;114636;241;161547;-51
2024/02/21 06:41:47;;;;;;;;;10.25;8.50;;;;;6.23;98.31;100734.08;114546;243;39432;-53
2024/02/21 06:44:22;;;;;;;;;19.75;14.00;;;;;6.27;98.34;100736.55;114425;241;161943;-53
2024/02/21 06:46:56;;;;;;;;;14.50;11.25;;;;;6.31;98.29;100736.02;114553;243;41308;-49
2024/02/21 06:49:30;;;;;;;;;19.75;13.25;;;;;6.29;98.19;100738.65;114546;243;41191;-49
2024/02/21 06:52:04;;;;;;;;;15.00;10.50;;;;;6.27;98.27;100736.02;114377;241;163050;-50
2024/02/21 06:54:39;;;;;;;;;16.00;11.00;;;;;6.23;98.38;100736.05;114571;243;39664;-50
2024/02/21 06:57:13;;;;;;;;;15.25;10.00;;;;;6.27;98.34;100736.73;114411;241;161504;-50
2024/02/21 06:59:47;;;;;;;;;16.00;11.00;;;;;6.29;98.20;100739.20;114539;243;40288;-50
2024/02/21 07:02:24;;;;;;;;;16.00;12.00;;;;;6.30;98.28;100738.63;114218;242;161206;-51
2024/02/21 07:04:58;;;;;;;;;15.00;11.00;;;;;6.30;98.40;100740.38;114541;243;40129;-51
2024/02/21 07:07:35;;;;;;;;;18.00;12.25;;;;;6.32;98.37;100739.45;114548;243;39555;-53
2024/02/21 07:10:10;;;;;;;;;23.67;17.00;;;;;6.37;98.46;100740.34;114432;241;161257;-54
2024/02/21 07:12:44;;;;;;;;;14.75;11.00;;;;;6.48;98.37;100741.04;114541;242;39832;-51
2024/02/21 07:15:18;;;;;;;;;17.00;12.00;;;;;6.52;98.26;100744.16;114364;241;161635;-51
2024/02/21 07:17:52;;;;;;;;;15.33;11.33;;;;;6.51;98.20;100741.58;114572;243;39095;-51
2024/02/21 07:20:26;;;;;;;;;16.50;12.00;;;;;6.53;98.14;100741.45;114410;241;161922;-51
2024/02/21 07:22:59;;;;;;;;;18.00;13.00;;;;;6.54;98.13;100736.52;114535;242;40955;-51
2024/02/21 07:25:34;;;;;;;;;15.33;11.67;;;;;6.56;98.01;100734.20;114562;243;40065;-51
2024/02/21 07:28:09;;;;;;;;;14.67;10.67;;;;;6.59;98.03;100732.85;114405;241;161530;-52
2024/02/21 07:30:43;;;;;;;;;15.00;13.00;;;;;6.57;98.04;100731.41;114567;242;39161;-51
2024/02/21 07:33:17;;;;;;;;;13.00;10.00;;;;;6.54;98.09;100723.75;114475;241;161641;-51
2024/02/21 07:35:51;;;;;;;;;17.50;12.75;;;;;6.59;97.92;100722.47;114594;243;39484;-50
2024/02/21 07:38:25;;;;;;;;;18.00;12.00;;;;;6.60;97.96;100718.06;114443;241;161839;-54
2024/02/21 07:41:00;;;;;;;;;14.00;10.50;;;;;6.61;98.07;100709.17;114512;243;40850;-55
2024/02/21 07:43:34;;;;;;;;;14.00;11.00;;;;;6.65;98.30;100703.52;114565;243;39599;-53
2024/02/21 07:46:08;;;;;;;;;20.00;12.00;;;;;6.74;98.45;100701.19;114382;241;161318;-53
2024/02/21 07:48:42;;;;;;;;;16.67;11.00;;;;;6.88;98.49;100696.70;114555;243;39783;-55
2024/02/21 07:51:18;;;;;;;;;17.00;11.75;;;;;6.94;98.55;100691.91;114407;241;161835;-55
2024/02/21 07:53:52;;;;;;;;;17.25;13.00;;;;;7.05;98.57;100691.48;114534;243;40893;-51
2024/02/21 07:56:28;;;;;;;;;24.00;16.25;;;;;7.07;98.47;100685.83;114442;241;161798;-52
2024/02/21 07:59:03;;;;;;;;;20.00;13.00;;;;;7.13;98.21;100686.27;114517;243;41050;-51
2024/02/21 08:01:37;;;;;;;;;18.00;13.00;;;;;7.22;98.04;100674.63;114541;243;39312;-53
2024/02/21 08:04:11;;;;;;;;;20.75;13.00;;;;;7.31;97.73;100673.44;114391;241;160733;-53
2024/02/21 08:06:48;;;;;;;;;23.33;15.67;;;;;7.33;97.71;100671.30;114572;243;39072;-54
2024/02/21 08:09:22;;;;;;;;;24.75;16.75;;;;;7.43;97.64;100671.83;114406;241;160989;-54
2024/02/21 08:11:56;;;;;;;;;12.75;10.00;;;;;7.50;97.29;100671.61;114517;243;40057;-54
2024/02/21 08:14:30;;;;;;;;;20.75;16.00;;;;;7.50;97.17;100665.17;114451;241;161946;-54
2024/02/21 08:17:04;;;;;;;;;16.75;12.00;;;;;7.53;96.97;100664.88;114557;243;40104;-53
2024/02/21 08:19:39;;;;;;;;;22.00;14.00;;;;;7.48;97.00;100661.43;114582;243;40832;-53
2024/02/21 08:22:13;;;;;;;;;17.00;12.00;;;;;7.50;96.96;100661.24;114414;243;161413;-50
2024/02/21 08:24:49;;;;;;;;;17.50;14.00;;;;;7.51;96.87;100663.79;114554;243;39315;-50
2024/02/21 08:27:23;;;;;;;;;21.00;14.00;;;;;7.48;96.96;100657.97;114148;242;161553;-52
2024/02/21 08:29:57;;;;;;;;;18.00;12.00;;;;;7.46;96.95;100656.65;114501;243;41562;-52
2024/02/21 08:32:35;;;;;;;;;25.00;15.00;;;;;7.45;96.63;100654.98;114360;241;161719;-53
2024/02/21 08:35:12;;;;;;;;;18.00;13.00;;;;;7.40;96.68;100657.31;114424;243;39961;-53
2024/02/21 08:37:47;;;;;;;;;25.25;19.00;;;;;7.45;96.43;100656.16;114556;243;39157;-51
2024/02/21 08:40:21;;;;;;;;;18.00;13.00;;;;;7.52;96.45;100652.71;114298;244;39446;-50
2024/02/21 08:42:56;;;;;;;;;35.75;22.00;;;;;7.57;96.69;100652.42;114234;244;39263;-54
2024/02/21 08:45:30;;;;;;;;;21.25;14.00;;;;;7.72;96.68;100649.67;114133;242;161689;-55
2024/02/21 08:48:04;;;;;;;;;19.75;15.00;;;;;7.90;96.71;100648.97;114245;244;39170;-56
2024/02/21 08:50:39;;;;;;;;;27.00;20.75;;;;;7.97;96.35;100650.18;114144;242;161179;-55
2024/02/21 08:53:14;;;;;;;;;25.00;19.00;;;;;8.06;96.06;100646.86;114441;243;39617;-55
2024/02/21 08:55:48;;;;;;;;;24.00;17.50;;;;;8.07;95.89;100643.51;114574;243;41386;-55
2024/02/21 08:58:24;;;;;;;;;25.50;18.00;;;;;8.07;95.74;100640.64;114200;243;39269;-53
2024/02/21 09:00:57;;;;;;;;;21.00;14.00;;;;;8.07;95.68;100637.66;114288;244;39598;-54
2024/02/21 09:03:33;;;;;;;;;20.00;15.00;;;;;8.09;95.71;100631.59;114090;242;161921;-53
2024/02/21 09:06:10;;;;;;;;;23.00;16.00;;;;;8.14;95.61;100634.18;114245;244;41247;-53
2024/02/21 09:08:44;;;;;;;;;18.75;14.00;;;;;8.19;95.67;100629.48;114077;241;162040;-53
2024/02/21 09:11:19;;;;;;;;;25.00;16.00;;;;;8.23;95.60;100626.45;114215;244;39782;-54
2024/02/21 09:13:53;;;;;;;;;25.00;17.67;;;;;8.18;95.75;100625.27;114091;242;161894;-53
2024/02/21 09:16:27;;;;;;;;;19.00;13.00;;;;;8.18;95.85;100622.45;114326;243;40439;-52
2024/02/21 09:19:01;;;;;;;;;20.00;13.75;;;;;8.23;95.77;100623.56;114523;243;41388;-52
2024/02/21 09:21:35;;;;;;;;;15.00;12.00;;;;;8.20;95.44;100630.13;114194;241;162863;-54
2024/02/21 09:24:10;;;;;;;;;19.00;12.00;;;;;8.17;95.46;100633.98;114534;243;39021;-54
2024/02/21 09:26:44;;;;;;;;;20.00;12.75;;;;;8.07;95.52;100635.46;114329;241;161713;-54
2024/02/21 09:29:18;;;;;;;;;18.00;12.00;;;;;8.06;95.64;100632.20;114484;243;38991;-54
2024/02/21 09:31:53;;;;;;;;;22.00;15.67;;;;;8.02;95.90;100629.88;114430;241;162981;-50
2024/02/21 09:34:27;;;;;;;;;15.50;10.50;;;;;8.10;95.89;100626.66;114509;243;39899;-50
2024/02/21 09:37:02;;;;;;;;;21.00;15.25;;;;;8.17;95.79;100624.66;114585;243;39941;-52
2024/02/21 09:39:36;;;;;;;;;14.75;10.25;;;;;8.20;96.12;100628.27;114406;243;161896;-52
2024/02/21 09:42:12;;;;;;;;;23.00;17.00;;;;;8.21;96.07;100627.99;114561;243;39739;-54
2024/02/21 09:44:47;;;;;;;;;14.00;11.00;;;;;8.23;95.99;100623.28;114445;241;161862;-55
2024/02/21 09:47:27;;;;;;;;;10.75;9.00;;;;;8.24;96.04;100620.59;114573;243;39661;-54
2024/02/21 09:50:01;;;;;;;;;16.00;11.25;;;;;8.20;96.12;100618.95;114383;242;161846;-54
2024/02/21 09:52:37;;;;;;;;;21.25;16.00;;;;;8.16;96.42;100613.88;114218;244;40710;-52
2024/02/21 09:55:14;;;;;;;;;18.25;12.75;;;;;8.12;96.27;100612.20;114235;244;40812;-52
2024/02/21 09:57:49;;;;;;;;;20.00;14.00;;;;;8.12;96.30;100615.52;114079;244;161343;-52
2024/02/21 10:00:23;;;;;;;;;23.00;14.00;;;;;8.12;96.57;100610.04;114241;244;39708;-52
2024/02/21 10:02:57;;;;;;;;;16.00;12.00;;;;;8.19;96.33;100608.70;114089;242;160876;-54
2024/02/21 10:05:31;;;;;;;;;16.00;11.00;;;;;8.21;96.25;100606.58;114233;244;40304;-54
2024/02/21 10:08:06;;;;;;;;;16.25;11.25;;;;;8.23;96.26;100602.98;114114;242;162091;-52
2024/02/21 10:10:49;;;;;;;;;16.33;12.00;;;;;8.26;96.14;100599.60;114217;244;40212;-53
2024/02/21 10:13:31;;;;;;;;;18.50;14.00;;;;;8.38;96.19;100597.98;114235;244;40272;-54
2024/02/21 10:16:09;;;;;;;;;18.33;13.00;;;;;8.45;95.89;100593.03;114066;242;161734;-55
2024/02/21 10:18:44;;;;;;;;;14.00;11.00;;;;;8.47;95.95;100590.90;114232;244;39735;-54
2024/02/21 10:21:20;;;;;;;;;18.00;13.50;;;;;8.47;95.79;100586.89;114083;242;161987;-53
2024/02/21 10:23:54;;;;;;;;;12.00;10.00;;;;;8.51;95.87;100580.15;114276;244;40280;-53
2024/02/21 10:26:29;;;;;;;;;17.50;13.25;;;;;8.56;95.77;100578.86;114160;242;162007;-54
2024/02/21 10:29:06;;;;;;;;;17.00;11.00;;;;;8.57;95.73;100578.92;114278;244;39824;-50
2024/02/21 10:31:40;;;;;;;;;15.75;11.75;;;;;8.64;95.68;100574.91;114362;244;39358;-54
2024/02/21 10:34:17;;;;;;;;;15.00;11.00;;;;;8.76;95.71;100577.89;114148;242;161609;-54
2024/02/21 10:37:02;;;;;;;;;14.00;11.00;;;;;8.85;95.82;100578.16;114602;243;41117;-50
2024/02/21 10:39:40;;;;;;;;;18.00;14.25;;;;;8.88;95.35;100575.16;114218;241;161723;-49
2024/02/21 10:42:18;;;;;;;;;20.00;14.00;;;;;8.83;94.96;100569.98;114256;243;39337;-50
2024/02/21 10:44:56;;;;;;;;;12.75;10.50;;;;;8.83;95.10;100570.94;114331;241;161111;-50
2024/02/21 10:47:33;;;;;;;;;28.33;20.00;;;;;8.91;95.07;100568.38;114478;243;40320;-54
2024/02/21 10:50:13;;;;;;;;;19.75;14.00;;;;;8.91;95.15;100563.54;114391;241;161334;-54
2024/02/21 10:53:02;;;;;;;;;16.00;11.25;;;;;8.85;95.08;100564.90;114602;243;40963;-50
2024/02/21 10:55:46;;;;;;;;;21.00;15.00;;;;;8.72;94.72;100555.80;114513;243;39223;-50
2024/02/21 10:58:20;;;;;;;;;20.50;14.25;;;;;8.74;94.78;100556.18;114278;243;40766;-50
2024/02/21 11:00:55;;;;;;;;;18.00;14.00;;;;;8.77;94.97;100549.38;114244;243;38996;-49
2024/02/21 11:03:29;;;;;;;;;14.00;10.67;;;;;8.78;95.00;100541.90;115033;242;161963;-53
2024/02/21 11:06:05;;;;;;;;;20.75;14.00;;;;;8.78;94.81;100537.34;114745;243;39702;-53
2024/02/21 11:08:39;;;;;;;;;15.25;11.50;;;;;8.86;94.75;100531.30;114521;242;161906;-53
2024/02/21 11:11:18;;;;;;;;;21.00;15.00;;;;;8.87;94.60;100531.69;114710;243;40454;-53
2024/02/21 11:13:53;;;;;;;;;19.67;14.33;;;;;8.90;94.45;100530.61;114413;243;161908;-50
2024/02/21 11:16:28;;;;;;;;;23.75;17.75;;;;;8.94;94.20;100529.80;114888;243;39877;-50
2024/02/21 11:19:11;;;;;;;;;24.25;18.00;;;;;8.93;94.36;100525.27;114595;243;40386;-49
2024/02/21 11:21:45;;;;;;;;;22.25;17.00;;;;;8.90;94.37;100526.05;114693;241;161081;-51
2024/02/21 11:24:31;;;;;;;;;23.00;16.25;;;;;8.88;94.43;100518.79;114600;243;39060;-51
2024/02/21 11:27:16;;;;;;;;;21.00;16.00;;;;;8.88;94.48;100515.85;114500;241;161175;-52
2024/02/21 11:29:58;;;;;;;;;15.00;11.00;;;;;8.94;94.29;100509.16;114594;243;39729;-52
2024/02/21 11:32:32;;;;;;;;;28.50;20.50;;;;;8.95;94.37;100508.81;114406;241;160839;-52
2024/02/21 11:35:08;;;;;;;;;19.00;15.00;;;;;8.91;94.48;100508.20;114546;243;39683;-52
2024/02/21 11:37:45;;;;;;;;;21.00;15.50;;;;;8.81;94.49;100508.95;114543;243;38972;-52
2024/02/21 11:40:19;;;;;;;;;21.50;15.25;;;;;8.72;94.47;100504.83;114494;243;40158;-51
2024/02/21 11:42:53;;;;;;;;;20.00;14.67;;;;;8.66;94.38;100502.16;114537;243;40971;-52
2024/02/21 11:45:32;;;;;;;;;23.00;16.00;;;;;8.54;94.42;100498.66;114495;241;161959;-54
2024/02/21 11:48:08;;;;;;;;;18.00;13.75;;;;;8.48;94.52;100498.95;114553;243;38831;-51
2024/02/21 11:50:42;;;;;;;;;21.00;13.00;;;;;8.46;94.59;100499.77;114336;242;161563;-51
2024/02/21 11:53:17;;;;;;;;;21.50;15.25;;;;;8.49;94.75;100489.38;114232;244;41244;-54
2024/02/21 11:55:52;;;;;;;;;15.00;11.00;;;;;8.48;94.73;100491.11;114217;244;40014;-52